createdAt,value
2019-05-17T00:00:00.805Z,94.5
2019-05-17T00:04:58.317Z,94.6
2019-05-17T00:09:57.076Z,94.8
2019-05-17T00:14:52.929Z,94.7
2019-05-17T00:19:50.395Z,94.6
2019-05-17T00:24:47.883Z,94.6
2019-05-17T00:29:46.484Z,94.9
2019-05-17T00:34:42.702Z,94.9
2019-05-17T00:39:40.103Z,94.9
2019-05-17T00:44:37.464Z,94.9
2019-05-17T00:49:36.965Z,94.8
2019-05-17T00:54:32.321Z,94.9
2019-05-17T00:59:29.778Z,94.6
2019-05-17T01:04:27.569Z,94.9
2019-05-17T01:09:24.442Z,95.1
2019-05-17T01:14:21.917Z,95
2019-05-17T01:19:19.645Z,95
2019-05-17T01:24:17.474Z,94.9
2019-05-17T01:29:14.381Z,94.8
2019-05-17T01:34:11.919Z,95.1
2019-05-17T01:39:17.160Z,95.1
2019-05-17T01:44:07.459Z,95.2
2019-05-17T01:49:03.997Z,95.1
2019-05-17T01:54:01.386Z,95.1
2019-05-17T01:58:58.677Z,95.1
2019-05-17T02:03:57.463Z,95.3
2019-05-17T02:08:53.542Z,95.1
2019-05-17T02:13:50.920Z,95.3
2019-05-17T02:18:48.203Z,95.2
2019-05-17T02:23:46.899Z,95.3
2019-05-17T02:28:42.903Z,95.2
2019-05-17T02:33:42.985Z,95.3
2019-05-17T02:38:37.614Z,95.4
2019-05-17T02:43:35.056Z,94.9
2019-05-17T02:48:33.703Z,95.4
2019-05-17T02:53:33.137Z,95.4
2019-05-17T02:58:27.022Z,95.4
2019-05-17T03:03:24.458Z,95.4
2019-05-17T03:08:23.387Z,95.4
2019-05-17T03:13:19.426Z,95.2
2019-05-17T03:18:16.872Z,95.2
2019-05-17T03:23:14.317Z,95.4
2019-05-17T03:28:13.350Z,95.1
2019-05-17T03:33:15.216Z,94.6
2019-05-17T03:38:06.756Z,94.3
2019-05-17T03:43:04.400Z,94.2
2019-05-17T03:48:04.632Z,94.2
2019-05-17T03:53:02.148Z,93.2
2019-05-17T03:57:57.017Z,92.6
2019-05-17T04:02:54.612Z,92.1
2019-05-17T04:07:53.555Z,92.3
2019-05-17T04:12:52.691Z,91.7
2019-05-17T04:17:46.953Z,92
2019-05-17T04:22:44.757Z,91.9
2019-05-17T04:27:43.522Z,91.4
2019-05-17T04:32:39.346Z,91.5
2019-05-17T04:37:38.497Z,90.4
2019-05-17T04:42:34.334Z,90.4
2019-05-17T04:47:33.136Z,90.3
2019-05-17T04:52:29.466Z,90.1
2019-05-17T04:57:26.950Z,89.5
2019-05-17T05:02:24.713Z,84.8
2019-05-17T05:07:22.922Z,78.8
2019-05-17T05:12:22.800Z,76.9
2019-05-17T05:17:22.129Z,79.3
2019-05-17T05:22:17.819Z,80.6
2019-05-17T05:27:15.111Z,81.2
2019-05-17T05:32:12.083Z,80.4
2019-05-17T05:37:09.673Z,78
2019-05-17T05:42:10.561Z,76.1
2019-05-17T05:47:05.479Z,74.3
2019-05-17T05:52:03.618Z,70.5
2019-05-17T05:57:02.374Z,67.7
2019-05-17T06:02:01.732Z,64.5
2019-05-17T06:06:58.909Z,67.9
2019-05-17T06:11:56.878Z,64.6
2019-05-17T06:16:54.692Z,66.4
2019-05-17T06:21:52.541Z,64.6
2019-05-17T06:26:52.478Z,61.1
2019-05-17T06:31:51.715Z,60
2019-05-17T06:36:47.685Z,58.7
2019-05-17T06:41:46.279Z,58.9
2019-05-17T06:46:44.307Z,61.3
2019-05-17T06:51:42.548Z,59.3
2019-05-17T06:56:41.773Z,58.7
2019-05-17T07:01:37.898Z,56
2019-05-17T07:06:35.703Z,57.2
2019-05-17T07:11:33.405Z,56.5
2019-05-17T07:16:31.296Z,58.7
2019-05-17T07:21:29.701Z,54.9
2019-05-17T07:26:26.793Z,52.7
2019-05-17T07:31:24.833Z,53.6
2019-05-17T07:36:22.891Z,53.1
2019-05-17T07:41:21.158Z,49.2
2019-05-17T07:46:20.595Z,51.9
2019-05-17T07:51:19.467Z,54.2
2019-05-17T07:56:15.092Z,55.1
2019-05-17T08:01:12.329Z,55.4
2019-05-17T08:06:10.506Z,52.1
2019-05-17T08:11:10.498Z,51.2
2019-05-17T08:16:06.141Z,51.2
2019-05-17T08:21:04.245Z,50.6
2019-05-17T08:26:02.041Z,54.1
2019-05-17T08:31:00.967Z,54.3
2019-05-17T08:35:55.923Z,56.3
2019-05-17T08:40:53.174Z,56.8
2019-05-17T08:45:50.372Z,58.8
2019-05-17T08:50:49.458Z,57.6
2019-05-17T08:55:44.914Z,56.5
2019-05-17T09:00:42.834Z,51.2
2019-05-17T09:05:42.085Z,47.5
2019-05-17T09:10:41.403Z,44.3
2019-05-17T09:15:40.220Z,43.8
2019-05-17T09:20:40.459Z,46.7
2019-05-17T09:25:36.598Z,45.6
2019-05-17T09:30:34.163Z,36.5
2019-05-17T09:35:33.670Z,42.5
2019-05-17T09:40:31.185Z,51.1
2019-05-17T09:45:27.501Z,34.4
2019-05-17T09:50:29.348Z,32.8
2019-05-17T09:55:26.586Z,40.2
2019-05-17T10:00:24.349Z,44.3
2019-05-17T10:05:21.392Z,44.3
2019-05-17T10:10:20.216Z,35.9
2019-05-17T10:15:20.486Z,30.8
2019-05-17T10:20:19.806Z,38.7
2019-05-17T10:25:14.964Z,36.9
2019-05-17T10:30:12.877Z,33.3
2019-05-17T10:35:11.664Z,32.3
2019-05-17T10:40:10.892Z,30.8
2019-05-17T10:45:10.820Z,35.4
2019-05-17T10:50:06.929Z,35.7
2019-05-17T10:55:03.912Z,41.8
2019-05-17T11:00:00.757Z,35.3
2019-05-17T11:05:00.630Z,37.5
2019-05-17T11:09:56.157Z,38.9
2019-05-17T11:15:09.639Z,40.9
2019-05-17T11:19:50.788Z,43.1
2019-05-17T11:24:47.886Z,45.5
2019-05-17T11:29:44.747Z,43
2019-05-17T11:34:41.958Z,43.2
2019-05-17T11:39:39.345Z,46.5
2019-05-17T11:44:36.343Z,43.6
2019-05-17T11:49:33.962Z,44.4
2019-05-17T11:54:31.689Z,47.1
2019-05-17T11:59:29.069Z,45
2019-05-17T12:04:26.250Z,47.2
2019-05-17T12:09:36.371Z,47.3
2019-05-17T12:14:21.080Z,44
2019-05-17T12:19:19.023Z,44.4
2019-05-17T12:24:17.312Z,44.3
2019-05-17T12:29:15.351Z,46.1
2019-05-17T12:34:13.099Z,43.3
2019-05-17T12:39:11.132Z,42.1
2019-05-17T12:44:08.635Z,45.2
2019-05-17T12:49:06.165Z,43.9
2019-05-17T12:54:04.623Z,41.3
2019-05-17T12:59:02.637Z,40.5
2019-05-17T13:04:00.740Z,37.5
2019-05-17T13:08:58.881Z,41.8
2019-05-17T13:13:56.720Z,40.3
2019-05-17T13:18:54.528Z,39.6
2019-05-17T13:23:52.954Z,42.3
2019-05-17T13:28:51.038Z,40.2
2019-05-17T13:33:48.347Z,41.1
2019-05-17T13:38:45.936Z,41.4
2019-05-17T13:43:44.054Z,40.7
2019-05-17T13:48:41.489Z,40.1
2019-05-17T13:53:39.283Z,42.3
2019-05-17T13:58:36.593Z,42.3
2019-05-17T14:03:33.854Z,44.4
2019-05-17T14:08:31.051Z,41.6
2019-05-17T14:13:28.616Z,45.8
2019-05-17T14:18:25.976Z,44.2
2019-05-17T14:23:23.092Z,44
2019-05-17T14:28:20.337Z,45.6
2019-05-17T14:33:17.561Z,45.2
2019-05-17T14:38:14.838Z,45.2
2019-05-17T14:43:11.681Z,47.5
2019-05-17T14:48:08.933Z,44.3
2019-05-17T14:53:06.267Z,45.4
2019-05-17T14:58:03.793Z,44.8
2019-05-17T15:03:01.271Z,48.2
2019-05-17T15:07:58.407Z,50.5
2019-05-17T15:12:56.044Z,47.8
2019-05-17T15:17:53.703Z,46.8
2019-05-17T15:22:51.544Z,53.8
2019-05-17T15:27:48.466Z,56.6
2019-05-17T15:32:45.416Z,56.9
2019-05-17T15:37:42.275Z,56.2
2019-05-17T15:42:43.911Z,57.6
2019-05-17T15:47:36.793Z,55.6
2019-05-17T15:52:34.443Z,54
2019-05-17T15:57:32.319Z,55.7
2019-05-17T16:02:30.135Z,57.9
2019-05-17T16:07:27.633Z,57.2
2019-05-17T16:12:24.779Z,57.5
2019-05-17T16:17:22.056Z,58.2
2019-05-17T16:22:18.991Z,61.8
2019-05-17T16:27:15.665Z,64.9
2019-05-17T16:32:12.937Z,64
2019-05-17T16:37:10.059Z,68.7
2019-05-17T16:42:07.127Z,70.5
2019-05-17T16:47:04.188Z,73.6
2019-05-17T16:52:01.036Z,76.9
2019-05-17T16:56:58.313Z,79.4
2019-05-17T17:01:55.599Z,78.8
2019-05-17T17:06:52.588Z,76.9
2019-05-17T17:11:49.620Z,78.8
2019-05-17T17:16:46.893Z,79.4
2019-05-17T17:21:44.267Z,81.1
2019-05-17T17:26:41.495Z,82.4
2019-05-17T17:31:38.835Z,82.9
2019-05-17T17:36:36.095Z,84.6
2019-05-17T17:41:33.333Z,85.8
2019-05-17T17:46:30.332Z,86.5
2019-05-17T17:51:27.366Z,87.5
2019-05-17T17:56:24.568Z,87.9
2019-05-17T18:01:22.008Z,87.5
2019-05-17T18:06:18.780Z,88.3
2019-05-17T18:11:16.247Z,88.1
2019-05-17T18:16:13.291Z,88.6
2019-05-17T18:21:10.429Z,88.3
2019-05-17T18:26:07.717Z,88.2
2019-05-17T18:31:05.093Z,88.9
2019-05-17T18:36:02.661Z,89.1
2019-05-17T18:41:00.031Z,89.6
2019-05-17T18:45:57.286Z,90.4
2019-05-17T18:50:54.625Z,90.5
2019-05-17T18:55:53.348Z,90.6
2019-05-17T19:00:50.484Z,89.9
2019-05-17T19:05:47.900Z,90.1
2019-05-17T19:10:45.390Z,90.8
2019-05-17T19:15:42.986Z,90.9
2019-05-17T19:20:40.405Z,91.3
2019-05-17T19:25:38.409Z,92.4
2019-05-17T19:30:36.203Z,92.7
2019-05-17T19:35:33.592Z,92.6
2019-05-17T19:40:31.655Z,92.5
2019-05-17T19:45:29.180Z,92.8
2019-05-17T19:50:26.411Z,92.7
2019-05-17T19:55:24.030Z,93
2019-05-17T20:00:21.676Z,93.4
2019-05-17T20:05:18.687Z,93.7
2019-05-17T20:10:15.739Z,94
2019-05-17T20:15:17.997Z,94.2
2019-05-17T20:20:10.534Z,94.4
2019-05-17T20:25:08.261Z,94.5
2019-05-17T20:30:05.774Z,94.6
2019-05-17T20:35:03.042Z,94.6
2019-05-17T20:40:00.524Z,94.9
2019-05-17T20:44:57.911Z,94.8
2019-05-17T20:49:55.317Z,94.6
2019-05-17T20:54:52.751Z,94.7
2019-05-17T20:59:50.123Z,94.8
2019-05-17T21:04:48.107Z,94.8
2019-05-17T21:09:45.599Z,95.1
2019-05-17T21:14:42.864Z,95
2019-05-17T21:19:40.278Z,95.5
2019-05-17T21:24:37.638Z,95.7
2019-05-17T21:29:35.274Z,95.6
2019-05-17T21:34:32.638Z,95.5
2019-05-17T21:39:29.639Z,95.6
2019-05-17T21:44:26.931Z,95.4
2019-05-17T21:49:24.269Z,95.7
2019-05-17T21:54:21.587Z,95.7
2019-05-17T21:59:18.838Z,95.8
2019-05-17T22:04:16.028Z,95.6
2019-05-17T22:09:13.386Z,95.8
2019-05-17T22:14:10.733Z,96
2019-05-17T22:19:08.169Z,96.2
2019-05-17T22:24:05.099Z,96.4
2019-05-17T22:29:01.944Z,96.8
2019-05-17T22:33:59.397Z,97.1
2019-05-17T22:38:56.339Z,97
2019-05-17T22:43:53.874Z,97
2019-05-17T22:48:51.398Z,96.8
2019-05-17T22:53:48.782Z,97.1
2019-05-17T22:58:46.323Z,97.2
2019-05-17T23:03:43.214Z,97.5
2019-05-17T23:08:40.698Z,97.6
2019-05-17T23:13:37.981Z,97.6
2019-05-17T23:18:35.427Z,97.6
2019-05-17T23:23:32.776Z,97.3
2019-05-17T23:28:30.210Z,97.6
2019-05-17T23:33:27.577Z,97.7
2019-05-17T23:38:25.050Z,97.5
2019-05-17T23:43:22.387Z,97.7
2019-05-17T23:48:19.735Z,98
2019-05-17T23:53:17.173Z,97.9
2019-05-17T23:58:14.564Z,97.8
